Time;durP1;ratioP1;P1;durP2;ratioP2;P2;SDS_P1;SDS_P2;PMS_P1;PMS_P2;Temp;Humidity;BMP_temperature;BMP_pressure;BME280_temperature;BME280_humidity;BME280_pressure;Samples;Min_cycle;Max_cycle;Signal;HPM_P1;HPM_P2
2023/06/22 00:01:32;;;;;;;;;;;21.90;91.50;;;;;;6154381;23;19908;-96
2023/06/22 00:04:01;;;;;;;;;;;21.90;91.50;;;;;;6131835;23;19912;-96
2023/06/22 00:06:31;;;;;;;;;;;21.90;91.60;;;;;;6157861;23;19909;-96
2023/06/22 00:11:33;;;;;;;;;;;21.90;91.50;;;;;;6074678;23;19928;-96
2023/06/22 00:14:02;;;;;;;;;;;21.90;91.70;;;;;;6050848;23;19914;-96
2023/06/22 00:16:35;;;;;;;;;;;21.90;91.60;;;;;;6071657;23;19909;-96
2023/06/22 00:19:03;;;;;;;;;;;21.90;91.60;;;;;;6045476;23;19912;-96
2023/06/22 00:21:54;;;;;;;;;;;21.90;91.70;;;;;;6046958;23;19909;-96
2023/06/22 00:24:24;;;;;;;;;;;21.90;91.70;;;;;;6078484;23;19954;-96
2023/06/22 00:27:15;;;;;;;;;;;21.90;91.70;;;;;;6023960;23;19922;-96
2023/06/22 00:33:19;;;;;;;;;;;21.90;91.60;;;;;;6082961;23;19921;-96
2023/06/22 00:35:59;;;;;;;;;;;21.90;91.70;;;;;;6056232;23;19925;-96
2023/06/22 00:38:33;;;;;;;;;;;21.90;91.40;;;;;;6062918;23;19925;-96
2023/06/22 00:43:49;;;;;;;;;;;21.90;91.50;;;;;;6033555;23;19909;-96
2023/06/22 00:55:16;;;;;;;;;;;21.90;91.50;;;;;;6155711;23;19909;-96
2023/06/22 01:01:10;;;;;;;;;;;21.80;91.60;;;;;;6015276;23;19913;-96
2023/06/22 01:03:38;;;;;;;;;;;21.90;91.50;;;;;;5993411;23;19906;-96
2023/06/22 01:06:19;;;;;;;;;;;21.90;91.50;;;;;;6013110;23;19934;-96
2023/06/22 01:08:49;;;;;;;;;;;21.80;91.40;;;;;;5987616;23;20332;-96
2023/06/22 01:11:45;;;;;;;;;;;21.90;91.40;;;;;;6018988;23;19930;-96
2023/06/22 01:14:23;;;;;;;;;;;21.80;91.50;;;;;;5998176;23;20316;-96
2023/06/22 01:16:53;;;;;;;;;;;21.80;91.50;;;;;;5987183;23;19907;-96
2023/06/22 01:19:38;;;;;;;;;;;21.70;91.50;;;;;;6013554;23;19910;-96
2023/06/22 01:22:28;;;;;;;;;;;21.80;91.40;;;;;;5987573;23;19918;-96
2023/06/22 01:25:08;;;;;;;;;;;21.80;91.40;;;;;;6016231;23;20403;-96
2023/06/22 01:56:39;;;;;;;;;;;21.80;91.50;;;;;;6158429;23;19921;-96
2023/06/22 01:59:27;;;;;;;;;;;21.80;91.30;;;;;;6130027;23;19908;-96
2023/06/22 02:02:06;;;;;;;;;;;21.80;91.40;;;;;;6140434;23;19911;-96
2023/06/22 02:04:44;;;;;;;;;;;21.80;91.20;;;;;;6132328;23;19904;-96
2023/06/22 02:07:32;;;;;;;;;;;21.80;91.50;;;;;;6152376;23;19932;-96
2023/06/22 02:10:14;;;;;;;;;;;21.70;91.40;;;;;;6106288;23;19928;-96
2023/06/22 02:12:42;;;;;;;;;;;21.80;91.30;;;;;;6131023;23;19909;-96
2023/06/22 02:15:10;;;;;;;;;;;21.70;91.40;;;;;;6156816;23;19912;-96
2023/06/22 02:17:59;;;;;;;;;;;21.80;91.30;;;;;;6132693;23;19915;-96
2023/06/22 02:20:26;;;;;;;;;;;21.70;91.40;;;;;;6158225;23;20584;-96
2023/06/22 02:23:00;;;;;;;;;;;21.70;91.10;;;;;;6110442;23;19915;-96
2023/06/22 02:25:28;;;;;;;;;;;21.70;91.30;;;;;;6108674;23;19932;-96
2023/06/22 02:27:57;;;;;;;;;;;21.70;91.30;;;;;;6107960;23;19912;-95
2023/06/22 02:30:36;;;;;;;;;;;21.70;91.10;;;;;;6133302;23;20426;-96
2023/06/22 02:33:03;;;;;;;;;;;21.70;91.10;;;;;;6109882;23;20323;-96
2023/06/22 02:35:35;;;;;;;;;;;21.70;91.30;;;;;;6111801;23;19908;-96
2023/06/22 02:38:15;;;;;;;;;;;21.70;91.10;;;;;;6112469;23;19991;-94
2023/06/22 02:40:47;;;;;;;;;;;21.70;91.10;;;;;;6114354;23;19915;-96
2023/06/22 02:43:33;;;;;;;;;;;21.60;91.50;;;;;;6110336;23;20338;-96
2023/06/22 02:46:17;;;;;;;;;;;21.70;91.00;;;;;;6159962;23;20318;-96
2023/06/22 02:48:47;;;;;;;;;;;21.70;91.10;;;;;;6108582;23;19928;-96
2023/06/22 02:51:28;;;;;;;;;;;21.70;91.00;;;;;;6114784;23;19913;-96
2023/06/22 02:54:10;;;;;;;;;;;21.70;91.10;;;;;;6138906;23;19913;-96
2023/06/22 03:06:38;;;;;;;;;;;21.70;90.90;;;;;;6076053;23;19928;-96
2023/06/22 03:09:07;;;;;;;;;;;21.70;91.00;;;;;;6071064;23;19917;-96
2023/06/22 03:11:41;;;;;;;;;;;21.60;91.70;;;;;;6075190;23;19905;-96
2023/06/22 03:14:21;;;;;;;;;;;21.60;91.00;;;;;;6048188;23;19909;-96
2023/06/22 03:17:13;;;;;;;;;;;21.70;90.90;;;;;;6047496;23;19921;-96
2023/06/22 03:20:11;;;;;;;;;;;21.50;90.90;;;;;;6080422;23;19901;-96
2023/06/22 03:22:53;;;;;;;;;;;21.60;90.80;;;;;;6075484;23;19929;-96
2023/06/22 03:25:21;;;;;;;;;;;21.60;91.10;;;;;;6072452;23;20251;-96
2023/06/22 03:30:55;;;;;;;;;;;21.60;90.70;;;;;;6075270;23;20019;-96
2023/06/22 03:34:00;;;;;;;;;;;21.50;90.60;;;;;;6084608;23;19961;-96
2023/06/22 03:36:55;;;;;;;;;;;21.60;90.70;;;;;;6079692;23;19912;-96
2023/06/22 03:43:15;;;;;;;;;;;21.60;91.00;;;;;;6111511;23;19917;-96
2023/06/22 03:45:53;;;;;;;;;;;21.60;91.30;;;;;;6108293;23;19921;-96
2023/06/22 03:48:48;;;;;;;;;;;21.60;91.10;;;;;;6108661;23;19911;-96
2023/06/22 03:51:54;;;;;;;;;;;21.60;91.00;;;;;;6070269;23;19937;-96
2023/06/22 04:43:06;;;;;;;;;;;21.60;91.30;;;;;;6097595;23;19928;-90
2023/06/22 04:45:32;;;;;;;;;;;21.60;91.20;;;;;;6095621;23;19909;-90
2023/06/22 04:47:57;;;;;;;;;;;21.60;91.20;;;;;;6070225;23;19913;-90
2023/06/22 04:50:23;;;;;;;;;;;21.60;91.30;;;;;;6070414;23;19950;-89
2023/06/22 04:52:49;;;;;;;;;;;21.50;91.30;;;;;;6070277;23;19913;-89
2023/06/22 04:55:19;;;;;;;;;;;21.50;91.30;;;;;;6069037;23;19932;-90
2023/06/22 04:57:48;;;;;;;;;;;21.50;91.50;;;;;;6069780;23;19915;-90
2023/06/22 05:00:18;;;;;;;;;;;21.50;91.70;;;;;;6072760;23;19909;-93
2023/06/22 05:02:47;;;;;;;;;;;21.50;91.70;;;;;;6071262;23;19962;-92
2023/06/22 05:05:13;;;;;;;;;;;21.50;91.70;;;;;;6070295;23;19909;-94
2023/06/22 05:07:48;;;;;;;;;;;21.50;91.90;;;;;;6071589;23;19941;-96
2023/06/22 05:10:13;;;;;;;;;;;21.50;92.00;;;;;;6049144;23;19935;-94
2023/06/22 05:12:42;;;;;;;;;;;21.50;92.10;;;;;;6071034;23;19906;-95
2023/06/22 05:15:08;;;;;;;;;;;21.50;92.20;;;;;;6093977;23;19964;-94
2023/06/22 05:17:34;;;;;;;;;;;21.50;92.20;;;;;;6070989;23;20264;-96
2023/06/22 05:20:06;;;;;;;;;;;21.50;92.40;;;;;;6072102;23;19905;-94
2023/06/22 05:22:34;;;;;;;;;;;21.50;92.40;;;;;;6071382;23;19992;-95
2023/06/22 05:24:59;;;;;;;;;;;21.50;92.20;;;;;;6070670;23;20239;-96
2023/06/22 05:27:25;;;;;;;;;;;21.50;92.30;;;;;;6072087;23;19917;-95
2023/06/22 05:29:50;;;;;;;;;;;21.50;92.70;;;;;;6071112;23;20308;-95
2023/06/22 05:32:20;;;;;;;;;;;21.60;92.30;;;;;;6072042;23;19916;-95
2023/06/22 05:34:46;;;;;;;;;;;21.50;92.50;;;;;;6072819;23;19910;-96
2023/06/22 05:37:12;;;;;;;;;;;21.60;92.70;;;;;;6046098;23;20247;-92
2023/06/22 05:39:44;;;;;;;;;;;21.60;92.70;;;;;;6070637;23;19928;-95
2023/06/22 05:42:11;;;;;;;;;;;21.50;92.60;;;;;;6081512;23;20335;-95
2023/06/22 05:44:40;;;;;;;;;;;21.50;92.70;;;;;;6099683;23;19905;-95
2023/06/22 05:47:06;;;;;;;;;;;21.60;92.60;;;;;;6095454;23;19988;-94
2023/06/22 05:49:32;;;;;;;;;;;21.60;93.10;;;;;;6092319;23;19937;-96
2023/06/22 05:52:08;;;;;;;;;;;21.60;92.50;;;;;;6096554;23;19925;-96
2023/06/22 05:54:33;;;;;;;;;;;21.60;92.60;;;;;;6097043;23;20267;-94
2023/06/22 05:57:33;;;;;;;;;;;21.60;92.70;;;;;;6099226;23;19912;-95
2023/06/22 05:59:58;;;;;;;;;;;21.60;93.00;;;;;;5985815;23;19938;-94
2023/06/22 06:02:25;;;;;;;;;;;21.70;92.70;;;;;;5987244;23;20348;-94
2023/06/22 06:04:56;;;;;;;;;;;21.70;92.80;;;;;;5988502;23;19906;-95
2023/06/22 06:07:25;;;;;;;;;;;21.70;92.80;;;;;;6011843;23;19992;-96
2023/06/22 06:09:51;;;;;;;;;;;21.70;92.70;;;;;;5990386;23;19945;-96
2023/06/22 06:12:25;;;;;;;;;;;21.70;92.90;;;;;;5989557;23;19935;-96
2023/06/22 06:15:02;;;;;;;;;;;21.70;92.80;;;;;;5995537;23;19985;-95
2023/06/22 06:17:33;;;;;;;;;;;21.70;92.80;;;;;;5991573;23;19967;-96
2023/06/22 06:20:01;;;;;;;;;;;21.80;93.00;;;;;;6014611;23;19914;-96
2023/06/22 06:22:35;;;;;;;;;;;21.80;92.90;;;;;;5996834;23;19906;-96
2023/06/22 06:25:25;;;;;;;;;;;21.80;93.00;;;;;;6000360;23;19907;-95
2023/06/22 06:27:51;;;;;;;;;;;21.80;93.00;;;;;;5995403;23;19910;-94
2023/06/22 06:30:20;;;;;;;;;;;21.80;93.10;;;;;;5993392;23;20293;-96
2023/06/22 06:32:49;;;;;;;;;;;21.90;93.00;;;;;;5997499;23;19910;-96
2023/06/22 06:36:01;;;;;;;;;;;;;;;;;;;;;
2023/06/22 06:43:39;;;;;;;;;;;22.00;92.90;;;;;;6151302;23;19925;-93
2023/06/22 06:46:04;;;;;;;;;;;22.00;92.90;;;;;;6173474;23;19934;-95
2023/06/22 06:49:04;;;;;;;;;;;22.00;92.90;;;;;;6174379;23;19908;-96
2023/06/22 06:51:34;;;;;;;;;;;22.10;93.10;;;;;;6173238;23;19908;-96
2023/06/22 07:07:17;;;;;;;;;;;22.30;93.20;;;;;;6134673;23;19932;-96
2023/06/22 07:20:10;;;;;;;;;;;22.50;93.00;;;;;;6167112;23;19920;-96
2023/06/22 07:22:44;;;;;;;;;;;22.50;93.00;;;;;;6169472;23;19915;-96
2023/06/22 07:25:14;;;;;;;;;;;22.60;93.00;;;;;;6169411;23;19905;-95
2023/06/22 07:30:24;;;;;;;;;;;22.70;93.00;;;;;;6170397;23;19921;-95
2023/06/22 07:32:56;;;;;;;;;;;22.70;93.00;;;;;;6135212;23;19947;-96
2023/06/22 07:35:51;;;;;;;;;;;22.70;92.90;;;;;;6110448;23;19921;-96
2023/06/22 07:38:25;;;;;;;;;;;22.80;92.90;;;;;;6147868;23;19925;-94
2023/06/22 07:41:05;;;;;;;;;;;22.80;92.80;;;;;;6120876;23;19928;-96
2023/06/22 07:43:38;;;;;;;;;;;22.90;92.80;;;;;;6116911;23;19909;-96
2023/06/22 07:46:39;;;;;;;;;;;22.90;92.60;;;;;;6064851;23;19980;-96
2023/06/22 07:49:20;;;;;;;;;;;23.00;93.00;;;;;;6110343;23;19916;-96
2023/06/22 08:07:51;;;;;;;;;;;23.30;92.50;;;;;;6134953;23;19912;-96
2023/06/22 08:18:58;;;;;;;;;;;23.40;92.30;;;;;;6078083;23;19917;-93
2023/06/22 08:21:24;;;;;;;;;;;23.40;92.30;;;;;;6046168;23;19906;-96
2023/06/22 08:24:04;;;;;;;;;;;23.50;92.30;;;;;;6071725;23;19910;-90
2023/06/22 08:26:30;;;;;;;;;;;23.50;92.10;;;;;;6052381;23;19921;-96
2023/06/22 08:29:36;;;;;;;;;;;23.60;92.20;;;;;;6031927;23;19910;-96
2023/06/22 08:32:03;;;;;;;;;;;23.60;92.00;;;;;;5951800;23;19909;-96
2023/06/22 08:34:34;;;;;;;;;;;23.60;92.00;;;;;;5974451;23;19911;-96
2023/06/22 08:37:00;;;;;;;;;;;23.60;92.10;;;;;;6057027;23;19929;-94
2023/06/22 08:42:02;;;;;;;;;;;23.70;92.10;;;;;;6133249;23;19953;-96
2023/06/22 08:48:01;;;;;;;;;;;23.70;92.20;;;;;;6139344;23;19943;-96
2023/06/22 08:51:20;;;;;;;;;;;23.70;92.40;;;;;;6135702;23;19948;-95
2023/06/22 08:54:06;;;;;;;;;;;23.80;92.20;;;;;;6108147;23;19925;-96
2023/06/22 08:59:30;;;;;;;;;;;23.80;92.00;;;;;;6102069;23;19948;-96
2023/06/22 09:05:56;;;;;;;;;;;23.90;92.20;;;;;;6168744;23;19916;-96
2023/06/22 09:08:22;;;;;;;;;;;23.90;92.20;;;;;;6014200;23;19910;-95
2023/06/22 09:11:07;;;;;;;;;;;23.90;92.20;;;;;;6013285;23;20461;-96
2023/06/22 09:13:34;;;;;;;;;;;23.90;92.10;;;;;;6036213;23;20375;-94
2023/06/22 09:16:00;;;;;;;;;;;23.90;92.00;;;;;;6012874;23;19937;-95
2023/06/22 09:18:42;;;;;;;;;;;24.00;92.00;;;;;;5990096;23;20312;-96
2023/06/22 09:21:28;;;;;;;;;;;24.00;92.20;;;;;;6013772;23;19906;-96
2023/06/22 09:24:24;;;;;;;;;;;;;;;;;;;;;
2023/06/22 09:38:55;;;;;;;;;;;24.20;92.90;;;;;;6116884;23;19921;-94
2023/06/22 09:49:47;;;;;;;;;;;24.20;92.90;;;;;;6151215;23;19921;-96
2023/06/22 09:52:54;;;;;;;;;;;;;;;;;;;;;
2023/06/22 10:04:11;;;;;;;;;;;24.30;92.80;;;;;;5336255;23;17661586;-96
2023/06/22 10:07:02;;;;;;;;;;;24.40;93.10;;;;;;5915518;24;19933;-96
2023/06/22 10:12:36;;;;;;;;;;;24.40;93.40;;;;;;6050525;23;19920;-94
2023/06/22 10:15:29;;;;;;;;;;;24.50;93.20;;;;;;6143292;23;19917;-96
2023/06/22 10:52:47;;;;;;;;;;;24.50;92.90;;;;;;6101271;23;19921;-96
2023/06/22 10:55:55;;;;;;;;;;;24.60;92.40;;;;;;6073891;23;19953;-96
2023/06/22 11:03:51;;;;;;;;;;;24.50;92.40;;;;;;6148898;23;20011;-95
2023/06/22 11:06:17;;;;;;;;;;;24.50;91.40;;;;;;6130474;23;19905;-95
2023/06/22 11:08:44;;;;;;;;;;;24.40;90.80;;;;;;6130132;23;19912;-96
2023/06/22 11:11:09;;;;;;;;;;;24.40;91.70;;;;;;6131596;23;19913;-95
2023/06/22 11:16:53;;;;;;;;;;;24.50;92.20;;;;;;6057206;23;19986;-96
2023/06/22 11:19:47;;;;;;;;;;;24.40;91.50;;;;;;6047204;23;19941;-96
2023/06/22 11:22:22;;;;;;;;;;;24.40;91.90;;;;;;5963008;24;19906;-96
2023/06/22 11:28:17;;;;;;;;;;;24.40;91.30;;;;;;5989572;24;19906;-95
2023/06/22 11:30:48;;;;;;;;;;;24.30;91.30;;;;;;5982183;24;19919;-96
2023/06/22 11:33:14;;;;;;;;;;;24.30;91.00;;;;;;5988329;24;19907;-96
2023/06/22 11:35:40;;;;;;;;;;;24.30;91.80;;;;;;5958243;24;20370;-96
2023/06/22 11:38:15;;;;;;;;;;;;;;;;;;;;;
2023/06/22 11:40:41;;;;;;;;;;;24.30;90.70;;;;;;5983451;24;20065;-94
2023/06/22 11:43:19;;;;;;;;;;;24.30;92.20;;;;;;5986867;24;20240;-96
2023/06/22 11:51:31;;;;;;;;;;;24.30;91.70;;;;;;6137958;23;20247;-96
2023/06/22 11:54:27;;;;;;;;;;;24.30;92.40;;;;;;6133355;23;19932;-96
2023/06/22 11:57:15;;;;;;;;;;;24.40;92.20;;;;;;6046996;23;19977;-96
2023/06/22 11:59:41;;;;;;;;;;;24.30;92.00;;;;;;6041585;23;19961;-96
2023/06/22 12:02:08;;;;;;;;;;;24.30;91.50;;;;;;6020052;23;19906;-96
2023/06/22 12:11:03;;;;;;;;;;;24.40;93.20;;;;;;5936575;24;19952;-92
2023/06/22 12:13:47;;;;;;;;;;;24.40;93.40;;;;;;5918405;24;19916;-96
2023/06/22 12:16:13;;;;;;;;;;;24.40;93.10;;;;;;5912884;24;19907;-95
2023/06/22 12:27:56;;;;;;;;;;;24.40;93.70;;;;;;5848390;24;19957;-96
2023/06/22 12:30:22;;;;;;;;;;;24.30;93.70;;;;;;5823019;24;19919;-96
2023/06/22 12:32:47;;;;;;;;;;;24.30;94.20;;;;;;5832005;24;19908;-95
2023/06/22 12:35:19;;;;;;;;;;;24.30;93.90;;;;;;5878942;24;19971;-96
2023/06/22 12:38:14;;;;;;;;;;;24.30;93.70;;;;;;5882968;24;19984;-96
2023/06/22 12:40:39;;;;;;;;;;;24.30;93.60;;;;;;5903250;24;19912;-93
2023/06/22 12:43:06;;;;;;;;;;;24.30;94.10;;;;;;5896666;24;19911;-95
2023/06/22 12:45:53;;;;;;;;;;;24.30;93.90;;;;;;5939372;24;19911;-95
2023/06/22 12:48:19;;;;;;;;;;;24.30;93.60;;;;;;5957582;24;19947;-96
2023/06/22 12:51:24;;;;;;;;;;;24.30;93.40;;;;;;5960634;24;19923;-96
2023/06/22 12:54:16;;;;;;;;;;;24.30;93.60;;;;;;5979705;24;19981;-95
2023/06/22 12:57:01;;;;;;;;;;;24.30;93.70;;;;;;5957087;24;19906;-96
2023/06/22 12:59:58;;;;;;;;;;;24.30;93.30;;;;;;6117980;23;19913;-96
2023/06/22 13:02:42;;;;;;;;;;;24.10;93.90;;;;;;6127627;23;19984;-96
2023/06/22 13:05:36;;;;;;;;;;;24.30;93.70;;;;;;6154543;23;20378;-96
2023/06/22 13:08:21;;;;;;;;;;;24.30;93.80;;;;;;6128051;23;19905;-96
2023/06/22 13:10:47;;;;;;;;;;;24.30;93.70;;;;;;6127878;23;19959;-96
2023/06/22 13:13:33;;;;;;;;;;;24.30;94.00;;;;;;6128655;23;20374;-96
2023/06/22 13:16:38;;;;;;;;;;;24.30;94.50;;;;;;6134283;23;19912;-96
2023/06/22 13:22:00;;;;;;;;;;;24.30;94.00;;;;;;6159280;23;19921;-96
2023/06/22 13:27:51;;;;;;;;;;;24.40;95.20;;;;;;6112724;23;19944;-96
2023/06/22 13:30:17;;;;;;;;;;;24.40;93.70;;;;;;6106897;23;20334;-96
2023/06/22 13:36:14;;;;;;;;;;;24.30;93.70;;;;;;6158288;23;19940;-96
2023/06/22 13:38:59;;;;;;;;;;;24.30;93.50;;;;;;6156773;23;19905;-96
2023/06/22 13:41:44;;;;;;;;;;;24.30;94.00;;;;;;6139152;23;20349;-96
2023/06/22 13:45:04;;;;;;;;;;;24.30;93.90;;;;;;6139058;23;19999;-96
2023/06/22 14:38:07;;;;;;;;;;;24.50;95.50;;;;;;6118775;23;19921;-95
2023/06/22 14:40:38;;;;;;;;;;;24.50;95.20;;;;;;6096918;23;19933;-96
2023/06/22 14:43:05;;;;;;;;;;;24.40;95.50;;;;;;6072546;23;19916;-96
2023/06/22 14:45:32;;;;;;;;;;;24.50;95.10;;;;;;6072522;23;19920;-96
2023/06/22 14:48:03;;;;;;;;;;;24.40;95.10;;;;;;6047121;23;20565;-96
2023/06/22 14:50:29;;;;;;;;;;;24.50;95.00;;;;;;6071730;23;19913;-95
2023/06/22 14:52:55;;;;;;;;;;;24.40;94.40;;;;;;6048808;23;19917;-96
2023/06/22 14:55:40;;;;;;;;;;;24.40;94.60;;;;;;6048945;23;20000;-96
2023/06/22 14:58:06;;;;;;;;;;;24.40;94.50;;;;;;6073727;23;19962;-96
2023/06/22 15:00:52;;;;;;;;;;;24.50;95.50;;;;;;6051708;23;19913;-96
2023/06/22 15:03:21;;;;;;;;;;;24.50;95.50;;;;;;6106406;23;19909;-96
2023/06/22 15:09:42;;;;;;;;;;;24.50;96.40;;;;;;5991603;24;20297;-96
2023/06/22 15:37:08;;;;;;;;;;;24.50;97.30;;;;;;6137396;23;19932;-96
2023/06/22 15:39:59;;;;;;;;;;;24.50;97.40;;;;;;6156917;23;19904;-96
2023/06/22 15:42:47;;;;;;;;;;;24.50;96.70;;;;;;6157692;23;19972;-96
2023/06/22 15:45:41;;;;;;;;;;;24.50;97.20;;;;;;6130616;23;19909;-96
2023/06/22 15:48:16;;;;;;;;;;;24.60;98.00;;;;;;6157331;23;19905;-96
2023/06/22 15:51:31;;;;;;;;;;;;;;;;;;;;;
2023/06/22 15:54:30;;;;;;;;;;;24.60;97.70;;;;;;6036638;23;19914;-96
2023/06/22 15:58:00;;;;;;;;;;;;;;;;;;;;;
2023/06/22 16:01:08;;;;;;;;;;;;;;;;;;;;;
2023/06/22 16:09:16;;;;;;;;;;;24.50;97.20;;;;;;6123726;23;19921;-96
2023/06/22 16:11:55;;;;;;;;;;;24.40;97.20;;;;;;6075041;23;19924;-96
2023/06/22 17:25:57;;;;;;;;;;;24.40;96.80;;;;;;6122625;23;19921;-96
2023/06/22 17:39:04;;;;;;;;;;;24.40;96.20;;;;;;6173318;23;19925;-92
2023/06/22 17:42:04;;;;;;;;;;;24.40;95.70;;;;;;6162983;23;19979;-96
2023/06/22 17:45:12;;;;;;;;;;;24.40;95.60;;;;;;6190924;23;19904;-96
2023/06/22 17:48:22;;;;;;;;;;;24.30;95.90;;;;;;6192159;23;19908;-96
2023/06/22 17:51:23;;;;;;;;;;;24.20;96.10;;;;;;6189271;23;19956;-97
2023/06/22 17:54:29;;;;;;;;;;;24.20;96.20;;;;;;6186605;23;19904;-96
2023/06/22 17:57:09;;;;;;;;;;;24.10;96.20;;;;;;6186673;23;19908;-95
2023/06/22 18:00:13;;;;;;;;;;;24.10;96.20;;;;;;6195928;23;19908;-96
2023/06/22 18:06:10;;;;;;;;;;;24.00;96.20;;;;;;6146884;23;19926;-96
2023/06/22 18:11:14;;;;;;;;;;;24.00;96.20;;;;;;6132241;23;19924;-95
2023/06/22 18:13:50;;;;;;;;;;;24.00;96.10;;;;;;6106042;23;19916;-94
2023/06/22 18:16:20;;;;;;;;;;;24.00;96.10;;;;;;6110271;23;19913;-96
2023/06/22 18:18:49;;;;;;;;;;;24.00;96.00;;;;;;6110114;23;20307;-96
2023/06/22 18:25:10;;;;;;;;;;;23.90;95.90;;;;;;6106180;23;19929;-96
2023/06/22 18:27:38;;;;;;;;;;;23.90;95.80;;;;;;6087011;23;19909;-93
2023/06/22 18:30:08;;;;;;;;;;;23.90;95.60;;;;;;6070280;23;19965;-96
2023/06/22 18:55:52;;;;;;;;;;;23.60;94.60;;;;;;6010471;23;19922;-96
2023/06/22 19:08:35;;;;;;;;;;;;;;;;;;;;;
2023/06/22 19:11:36;;;;;;;;;;;23.70;94.20;;;;;;5843546;24;19920;-95
2023/06/22 19:17:49;;;;;;;;;;;23.60;94.00;;;;;;5791043;24;19916;-95
2023/06/22 19:24:08;;;;;;;;;;;23.60;93.90;;;;;;5764345;24;19921;-96
2023/06/22 19:36:18;;;;;;;;;;;23.60;94.00;;;;;;5765926;24;19920;-95
2023/06/22 19:39:16;;;;;;;;;;;23.60;94.10;;;;;;5743773;24;19993;-95
2023/06/22 19:41:48;;;;;;;;;;;23.60;94.20;;;;;;5741387;24;19910;-96
2023/06/22 19:44:15;;;;;;;;;;;23.50;94.10;;;;;;5734315;24;19956;-95
2023/06/22 19:47:01;;;;;;;;;;;23.50;94.10;;;;;;5709802;25;19915;-93
2023/06/22 19:50:08;;;;;;;;;;;23.50;94.00;;;;;;5688349;25;19941;-95
2023/06/22 19:52:55;;;;;;;;;;;23.50;94.10;;;;;;5706723;25;19918;-93
2023/06/22 19:56:08;;;;;;;;;;;23.50;94.10;;;;;;5709761;25;20012;-95
2023/06/22 19:58:54;;;;;;;;;;;23.50;94.00;;;;;;5733297;24;19981;-93
2023/06/22 20:01:40;;;;;;;;;;;23.40;94.00;;;;;;5964089;24;20012;-94
2023/06/22 20:04:08;;;;;;;;;;;23.50;93.90;;;;;;5980809;24;19993;-90
2023/06/22 20:06:34;;;;;;;;;;;23.40;93.80;;;;;;6031747;23;19909;-96
2023/06/22 20:09:05;;;;;;;;;;;23.40;93.80;;;;;;6101534;23;19940;-95
2023/06/22 20:11:37;;;;;;;;;;;23.40;93.70;;;;;;6077301;23;19947;-94
2023/06/22 20:14:40;;;;;;;;;;;23.40;93.70;;;;;;6104761;23;19916;-95
2023/06/22 20:17:35;;;;;;;;;;;23.40;93.70;;;;;;6101332;23;19916;-94
2023/06/22 20:20:23;;;;;;;;;;;23.40;93.70;;;;;;6100570;23;19905;-95
2023/06/22 20:23:29;;;;;;;;;;;23.30;93.70;;;;;;6125696;23;19936;-95
2023/06/22 20:26:18;;;;;;;;;;;23.30;93.60;;;;;;6101272;23;19909;-95
2023/06/22 20:28:56;;;;;;;;;;;23.40;93.60;;;;;;6126545;23;19909;-95
2023/06/22 20:31:25;;;;;;;;;;;23.40;93.50;;;;;;6100600;23;20323;-95
2023/06/22 20:34:12;;;;;;;;;;;23.30;93.40;;;;;;6100976;23;19936;-96
2023/06/22 20:36:41;;;;;;;;;;;23.30;93.50;;;;;;6125962;23;19905;-95
2023/06/22 20:39:07;;;;;;;;;;;23.30;93.50;;;;;;6076433;23;19944;-96
2023/06/22 20:42:11;;;;;;;;;;;23.30;93.50;;;;;;6100129;23;19913;-95
2023/06/22 20:44:54;;;;;;;;;;;23.30;93.50;;;;;;6096976;23;19913;-93
2023/06/22 20:47:20;;;;;;;;;;;23.30;93.50;;;;;;6048196;23;19916;-94
2023/06/22 20:49:46;;;;;;;;;;;23.30;93.50;;;;;;6072031;23;19917;-94
2023/06/22 20:52:14;;;;;;;;;;;23.30;93.50;;;;;;6073176;23;19933;-94
2023/06/22 20:55:03;;;;;;;;;;;23.20;93.50;;;;;;6048745;23;19976;-95
2023/06/22 20:57:54;;;;;;;;;;;23.20;93.50;;;;;;6072705;23;19913;-96
2023/06/22 21:00:25;;;;;;;;;;;23.20;93.50;;;;;;6072867;23;19933;-95
2023/06/22 21:03:12;;;;;;;;;;;23.20;93.40;;;;;;6073974;23;19916;-96
2023/06/22 21:06:05;;;;;;;;;;;23.20;93.40;;;;;;6098265;23;19905;-95
2023/06/22 21:08:53;;;;;;;;;;;23.20;93.40;;;;;;6049040;23;19909;-95
2023/06/22 21:14:56;;;;;;;;;;;23.20;93.40;;;;;;6004939;23;19958;-96
2023/06/22 21:17:46;;;;;;;;;;;23.20;93.40;;;;;;5989215;23;19922;-96
2023/06/22 21:20:38;;;;;;;;;;;23.20;93.40;;;;;;6035807;23;19984;-96
2023/06/22 21:23:54;;;;;;;;;;;23.20;93.40;;;;;;6014152;23;19973;-96
2023/06/22 21:30:00;;;;;;;;;;;23.10;93.40;;;;;;6011450;23;19914;-96
2023/06/22 21:32:53;;;;;;;;;;;23.10;93.50;;;;;;6016947;23;20352;-96
2023/06/22 21:35:28;;;;;;;;;;;23.10;93.50;;;;;;6012526;23;20330;-96
2023/06/22 21:37:53;;;;;;;;;;;23.10;93.50;;;;;;5991945;23;20206;-95
2023/06/22 21:43:53;;;;;;;;;;;23.00;93.50;;;;;;6036480;23;19954;-96
2023/06/22 21:46:46;;;;;;;;;;;23.00;93.50;;;;;;6042077;23;19934;-96
2023/06/22 21:49:29;;;;;;;;;;;23.00;93.50;;;;;;6045685;23;19951;-95
2023/06/22 21:52:22;;;;;;;;;;;23.00;93.50;;;;;;6098069;23;19906;-96
2023/06/22 21:55:09;;;;;;;;;;;22.90;93.50;;;;;;6098379;23;19988;-96
2023/06/22 21:57:57;;;;;;;;;;;23.00;93.50;;;;;;6103078;23;19905;-96
2023/06/22 22:00:28;;;;;;;;;;;23.00;93.50;;;;;;6101933;23;20320;-96
2023/06/22 22:03:14;;;;;;;;;;;23.00;93.50;;;;;;6076145;23;19909;-96
2023/06/22 22:06:02;;;;;;;;;;;23.00;93.50;;;;;;6101189;23;19905;-96
2023/06/22 22:08:32;;;;;;;;;;;23.00;93.50;;;;;;6099688;23;19906;-96
2023/06/22 22:11:24;;;;;;;;;;;23.00;93.50;;;;;;6104121;23;19967;-96
2023/06/22 22:14:21;;;;;;;;;;;23.00;93.60;;;;;;6101832;23;20357;-96
2023/06/22 22:17:08;;;;;;;;;;;23.00;93.60;;;;;;6102806;23;19925;-96
2023/06/22 22:20:05;;;;;;;;;;;22.90;93.50;;;;;;6101309;23;19948;-96
2023/06/22 22:22:31;;;;;;;;;;;22.90;93.40;;;;;;6101946;23;19905;-96
2023/06/22 22:25:17;;;;;;;;;;;22.90;93.50;;;;;;6098480;23;19905;-96
2023/06/22 22:27:44;;;;;;;;;;;22.90;93.50;;;;;;6099809;23;19912;-96
2023/06/22 22:30:30;;;;;;;;;;;22.90;93.50;;;;;;6074820;23;19913;-95
2023/06/22 22:33:35;;;;;;;;;;;22.90;93.40;;;;;;6102262;23;19976;-96
2023/06/22 22:36:39;;;;;;;;;;;22.90;93.50;;;;;;6098781;23;19906;-96
2023/06/22 22:39:05;;;;;;;;;;;22.90;93.50;;;;;;6099560;23;19906;-96
2023/06/22 22:41:51;;;;;;;;;;;22.90;93.50;;;;;;6081567;23;19909;-96
2023/06/22 22:44:39;;;;;;;;;;;22.90;93.50;;;;;;6101648;23;19940;-96
2023/06/22 22:47:32;;;;;;;;;;;22.90;93.50;;;;;;6102054;23;19968;-96
2023/06/22 22:50:25;;;;;;;;;;;22.90;93.50;;;;;;6102558;23;19933;-96
2023/06/22 22:53:12;;;;;;;;;;;22.90;93.40;;;;;;6107254;23;19906;-96
2023/06/22 22:55:39;;;;;;;;;;;22.90;93.50;;;;;;6105777;23;20036;-96
2023/06/22 22:58:37;;;;;;;;;;;22.80;93.50;;;;;;6082399;23;19949;-96
2023/06/22 23:01:40;;;;;;;;;;;22.80;93.70;;;;;;6108887;23;19913;-96
2023/06/22 23:04:47;;;;;;;;;;;22.80;93.40;;;;;;6107546;23;19906;-96
2023/06/22 23:07:38;;;;;;;;;;;22.80;93.40;;;;;;6102781;23;19913;-96
2023/06/22 23:10:43;;;;;;;;;;;22.80;93.40;;;;;;6103889;23;20282;-96
2023/06/22 23:13:32;;;;;;;;;;;22.80;93.30;;;;;;6103940;23;19912;-96
2023/06/22 23:15:58;;;;;;;;;;;22.80;93.30;;;;;;6077049;23;20210;-96
2023/06/22 23:18:44;;;;;;;;;;;22.80;93.30;;;;;;6084658;23;19992;-96
2023/06/22 23:21:33;;;;;;;;;;;22.80;93.30;;;;;;6102469;23;19936;-96
2023/06/22 23:24:32;;;;;;;;;;;22.80;93.30;;;;;;6101156;23;19913;-95
2023/06/22 23:27:09;;;;;;;;;;;22.80;93.20;;;;;;6068116;23;19906;-96
2023/06/22 23:29:57;;;;;;;;;;;22.80;93.20;;;;;;6019882;23;19910;-96
2023/06/22 23:32:28;;;;;;;;;;;22.70;93.20;;;;;;6071352;23;19986;-95
2023/06/22 23:35:15;;;;;;;;;;;22.80;93.20;;;;;;6045851;23;19910;-96
2023/06/22 23:38:01;;;;;;;;;;;22.80;93.20;;;;;;6072244;23;19906;-96
2023/06/22 23:40:51;;;;;;;;;;;22.70;93.10;;;;;;6071483;23;20000;-96
2023/06/22 23:43:41;;;;;;;;;;;22.70;93.30;;;;;;6067506;23;20244;-96
2023/06/22 23:46:30;;;;;;;;;;;22.70;93.30;;;;;;6043558;23;19913;-96
2023/06/22 23:49:14;;;;;;;;;;;22.70;93.30;;;;;;6072334;23;19912;-96
2023/06/22 23:52:06;;;;;;;;;;;22.70;93.20;;;;;;6045807;23;19918;-96
2023/06/22 23:54:55;;;;;;;;;;;22.70;93.30;;;;;;6070693;23;19934;-96
2023/06/22 23:57:26;;;;;;;;;;;22.70;93.30;;;;;;6081557;23;19936;-96
